createdAt,value
2019-05-03T00:02:27.165Z,32.30
2019-05-03T00:05:13.851Z,30.15
2019-05-03T00:07:42.563Z,32.20
2019-05-03T00:10:12.834Z,28.98
2019-05-03T00:12:42.149Z,35.35
2019-05-03T00:15:14.108Z,28.12
2019-05-03T00:17:42.715Z,30.52
2019-05-03T00:20:11.723Z,30.82
2019-05-03T00:22:41.911Z,32.33
2019-05-03T00:25:12.750Z,31.95
2019-05-03T00:27:42.757Z,32.50
2019-05-03T00:30:12.039Z,33.88
2019-05-03T00:32:42.615Z,32.85
2019-05-03T00:35:22.591Z,31.85
2019-05-03T00:37:55.680Z,35.15
2019-05-03T00:40:30.033Z,30.23
2019-05-03T00:42:59.170Z,37.63
2019-05-03T00:45:27.783Z,29.02
2019-05-03T00:47:56.400Z,34.10
2019-05-03T00:50:25.236Z,30.17
2019-05-03T00:52:53.861Z,32.73
2019-05-03T00:55:22.493Z,33.13
2019-05-03T00:57:52.141Z,28.57
2019-05-03T01:00:21.796Z,27.45
2019-05-03T01:02:51.690Z,28.52
2019-05-03T01:05:22.500Z,28.02
2019-05-03T01:07:52.412Z,29.40
2019-05-03T01:10:22.639Z,30.40
2019-05-03T01:12:52.273Z,29.98
2019-05-03T01:15:25.868Z,31.12
2019-05-03T01:17:54.441Z,27.13
2019-05-03T01:20:22.973Z,31.82
2019-05-03T01:22:51.953Z,31.12
2019-05-03T01:25:31.544Z,33.38
2019-05-03T01:27:52.184Z,30.25
2019-05-03T01:30:22.635Z,29.32
2019-05-03T01:32:52.354Z,39.80
2019-05-03T01:35:21.905Z,39.88
2019-05-03T01:37:51.721Z,36.70
2019-05-03T01:40:22.031Z,36.88
2019-05-03T01:42:51.800Z,34.85
2019-05-03T01:45:22.637Z,41.65
2019-05-03T01:48:02.567Z,41.02
2019-05-03T01:50:49.594Z,36.33
2019-05-03T01:53:21.568Z,35.38
2019-05-03T01:55:52.806Z,33.80
2019-05-03T01:58:23.141Z,35.88
2019-05-03T02:00:54.584Z,31.12
2019-05-03T02:03:24.831Z,32.03
2019-05-03T02:05:55.116Z,36.17
2019-05-03T02:08:23.659Z,31.97
2019-05-03T02:10:52.274Z,29.85
2019-05-03T02:13:22.810Z,35.80
2019-05-03T02:15:52.755Z,30.68
2019-05-03T02:18:22.352Z,28.87
2019-05-03T02:20:52.567Z,32.50
2019-05-03T02:23:22.472Z,27.73
2019-05-03T02:25:58.410Z,31.02
2019-05-03T02:28:22.068Z,28.27
2019-05-03T02:30:53.277Z,24.95
2019-05-03T02:33:23.371Z,26.77
2019-05-03T02:35:53.299Z,30.23
2019-05-03T02:38:23.351Z,25.15
2019-05-03T02:40:53.226Z,30.02
2019-05-03T02:43:27.245Z,22.77
2019-05-03T02:46:05.814Z,26.10
2019-05-03T02:48:50.282Z,28.65
2019-05-03T02:51:18.990Z,28.85
2019-05-03T02:53:47.599Z,26.10
2019-05-03T02:56:22.151Z,29.90
2019-05-03T02:58:46.401Z,28.17
2019-05-03T03:01:16.188Z,28.40
2019-05-03T03:03:45.988Z,28.30
2019-05-03T03:06:17.465Z,28.73
2019-05-03T03:08:48.449Z,24.47
2019-05-03T03:11:18.853Z,27.55
2019-05-03T03:13:48.463Z,25.70
2019-05-03T03:16:20.328Z,30.60
2019-05-03T03:18:48.298Z,26.42
2019-05-03T03:21:18.566Z,23.62
2019-05-03T03:24:02.203Z,21.33
2019-05-03T03:26:37.979Z,23.30
2019-05-03T03:29:06.115Z,24.35
2019-05-03T03:31:49.743Z,21.75
2019-05-03T03:34:21.220Z,27.10
2019-05-03T03:37:00.876Z,22.52
2019-05-03T03:39:26.023Z,24.72
2019-05-03T03:41:56.280Z,23.05
2019-05-03T03:44:25.857Z,26.30
2019-05-03T03:46:56.322Z,23.57
2019-05-03T03:49:28.432Z,21.82
2019-05-03T03:52:00.367Z,23.70
2019-05-03T03:54:31.904Z,22.50
2019-05-03T03:57:05.013Z,21.90
2019-05-03T03:59:36.048Z,21.90
2019-05-03T04:02:05.989Z,24.67
2019-05-03T04:04:35.850Z,22.80
2019-05-03T04:07:06.564Z,27.17
2019-05-03T04:09:36.582Z,21.10
2019-05-03T04:12:06.118Z,24.98
2019-05-03T04:14:49.441Z,26.02
2019-05-03T04:17:19.697Z,22.65
2019-05-03T04:19:52.675Z,23.85
2019-05-03T04:22:21.519Z,27.98
2019-05-03T04:24:50.163Z,23.98
2019-05-03T04:27:23.273Z,29.20
2019-05-03T04:29:49.580Z,25.05
2019-05-03T04:32:18.095Z,24.37
2019-05-03T04:34:46.740Z,24.82
2019-05-03T04:37:16.312Z,24.37
2019-05-03T04:39:47.711Z,21.37
2019-05-03T04:42:16.813Z,23.77
2019-05-03T04:44:47.137Z,27.25
2019-05-03T04:47:17.237Z,26.97
2019-05-03T04:49:46.395Z,26.73
2019-05-03T04:52:16.566Z,28.00
2019-05-03T04:54:49.683Z,25.30
2019-05-03T04:57:35.164Z,25.90
2019-05-03T04:59:48.621Z,31.50
2019-05-03T05:02:17.245Z,25.85
2019-05-03T05:04:46.505Z,28.40
2019-05-03T05:07:17.616Z,27.48
2019-05-03T05:09:46.118Z,28.98
2019-05-03T05:12:16.177Z,25.27
2019-05-03T05:14:45.865Z,30.80
2019-05-03T05:17:16.533Z,25.32
2019-05-03T05:19:49.989Z,32.85
2019-05-03T05:22:24.710Z,31.97
2019-05-03T05:24:55.212Z,34.13
2019-05-03T05:27:25.698Z,33.73
2019-05-03T05:29:55.391Z,31.93
2019-05-03T05:32:24.785Z,34.10
2019-05-03T05:34:54.940Z,27.20
2019-05-03T05:37:25.018Z,28.87
2019-05-03T05:39:57.136Z,24.18
2019-05-03T05:42:25.683Z,26.20
2019-05-03T05:44:55.707Z,25.52
2019-05-03T05:47:38.003Z,23.40
2019-05-03T05:50:15.026Z,30.70
2019-05-03T05:52:44.836Z,27.20
2019-05-03T05:55:21.977Z,26.85
2019-05-03T05:58:02.995Z,22.25
2019-05-03T06:00:33.100Z,26.65
2019-05-03T06:03:01.710Z,24.05
2019-05-03T06:05:30.337Z,24.37
2019-05-03T06:08:04.847Z,23.90
2019-05-03T06:10:35.371Z,23.90
2019-05-03T06:13:08.500Z,25.95
2019-05-03T06:15:38.689Z,23.60
2019-05-03T06:18:08.966Z,24.60
2019-05-03T06:20:39.147Z,26.17
2019-05-03T06:23:09.370Z,33.65
2019-05-03T06:25:39.517Z,25.97
2019-05-03T06:28:18.274Z,22.27
2019-05-03T06:30:45.421Z,24.45
2019-05-03T06:33:15.482Z,23.65
2019-05-03T06:35:44.589Z,22.00
2019-05-03T06:38:15.128Z,23.85
2019-05-03T06:40:44.682Z,24.47
2019-05-03T06:43:15.612Z,23.15
2019-05-03T06:45:46.691Z,25.08
2019-05-03T06:48:17.279Z,26.30
2019-05-03T06:50:45.473Z,27.55
2019-05-03T06:53:15.552Z,21.93
2019-05-03T06:55:48.241Z,23.65
2019-05-03T06:58:16.512Z,25.68
2019-05-03T07:00:46.661Z,26.10
2019-05-03T07:03:28.750Z,21.40
2019-05-03T07:06:17.338Z,21.12
2019-05-03T07:08:47.689Z,21.35
2019-05-03T07:11:16.358Z,19.40
2019-05-03T07:13:45.074Z,21.68
2019-05-03T07:16:14.958Z,20.88
2019-05-03T07:18:45.489Z,24.27
2019-05-03T07:21:15.235Z,23.75
2019-05-03T07:23:45.072Z,24.87
2019-05-03T07:26:15.078Z,23.65
2019-05-03T07:28:47.806Z,22.93
2019-05-03T07:31:15.090Z,23.07
2019-05-03T07:33:44.625Z,24.95
2019-05-03T07:36:15.228Z,23.35
2019-05-03T07:38:45.364Z,28.62
2019-05-03T07:41:14.958Z,28.80
2019-05-03T07:43:45.116Z,27.42
2019-05-03T07:46:14.702Z,29.05
2019-05-03T07:48:45.565Z,25.57
2019-05-03T07:51:14.430Z,24.27
2019-05-03T07:53:45.128Z,24.87
2019-05-03T07:56:15.853Z,23.42
2019-05-03T07:58:59.303Z,26.07
2019-05-03T08:01:18.180Z,31.07
2019-05-03T08:03:46.928Z,30.27
2019-05-03T08:06:15.430Z,28.65
2019-05-03T08:08:45.413Z,31.82
2019-05-03T08:11:14.596Z,29.82
2019-05-03T08:13:44.679Z,32.20
2019-05-03T08:16:15.937Z,26.93
2019-05-03T08:18:45.840Z,27.15
2019-05-03T08:21:15.010Z,32.10
2019-05-03T08:23:45.287Z,32.33
2019-05-03T08:26:15.289Z,29.75
2019-05-03T08:28:44.541Z,30.27
2019-05-03T08:31:23.779Z,31.77
2019-05-03T08:33:58.805Z,28.38
2019-05-03T08:36:27.485Z,38.80
2019-05-03T08:38:56.478Z,30.88
2019-05-03T08:41:26.829Z,36.15
2019-05-03T08:43:55.455Z,30.75
2019-05-03T08:46:25.352Z,33.98
2019-05-03T08:48:54.845Z,30.70
2019-05-03T08:51:24.974Z,32.45
2019-05-03T08:53:55.998Z,28.02
2019-05-03T08:56:24.690Z,24.35
2019-05-03T08:58:55.306Z,22.40
2019-05-03T09:01:25.130Z,23.15
2019-05-03T09:03:55.788Z,23.42
2019-05-03T09:06:24.890Z,21.25
2019-05-03T09:08:56.869Z,25.95
2019-05-03T09:11:31.859Z,23.80
2019-05-03T09:13:56.081Z,26.70
2019-05-03T09:16:25.128Z,23.57
2019-05-03T09:18:54.889Z,24.23
2019-05-03T09:21:25.508Z,27.42
2019-05-03T09:23:55.539Z,25.62
2019-05-03T09:26:28.990Z,26.55
2019-05-03T09:28:55.603Z,26.05
2019-05-03T09:31:25.106Z,30.30
2019-05-03T09:33:54.807Z,31.62
2019-05-03T09:36:25.315Z,30.40
2019-05-03T09:38:54.969Z,31.70
2019-05-03T09:41:25.570Z,31.93
2019-05-03T09:43:55.440Z,32.98
2019-05-03T09:46:26.526Z,31.50
2019-05-03T09:49:03.545Z,29.82
2019-05-03T09:51:25.656Z,30.88
2019-05-03T09:53:55.943Z,29.10
2019-05-03T09:56:52.844Z,31.73
2019-05-03T09:59:14.766Z,29.87
2019-05-03T10:01:45.448Z,27.82
2019-05-03T10:04:13.415Z,27.82
2019-05-03T10:06:42.072Z,27.02
2019-05-03T10:09:10.691Z,24.92
2019-05-03T10:11:39.437Z,29.50
2019-05-03T10:14:15.417Z,23.55
2019-05-03T10:16:57.390Z,24.30
2019-05-03T10:19:36.680Z,28.57
2019-05-03T10:21:56.724Z,23.45
2019-05-03T10:24:25.497Z,21.90
2019-05-03T10:26:55.227Z,22.62
2019-05-03T10:29:25.105Z,23.50
2019-05-03T10:31:58.368Z,20.27
2019-05-03T10:34:27.060Z,20.00
2019-05-03T10:36:56.485Z,20.32
2019-05-03T10:39:26.253Z,21.05
2019-05-03T10:41:55.191Z,20.55
2019-05-03T10:44:24.583Z,19.37
2019-05-03T10:46:55.765Z,17.52
2019-05-03T10:49:24.690Z,19.02
2019-05-03T10:51:57.616Z,24.07
2019-05-03T10:54:26.235Z,19.73
2019-05-03T10:56:59.138Z,19.48
2019-05-03T10:59:27.666Z,18.60
2019-05-03T11:01:57.917Z,21.60
2019-05-03T11:04:27.545Z,15.85
2019-05-03T11:06:56.138Z,19.37
2019-05-03T11:09:25.818Z,19.55
2019-05-03T11:11:55.490Z,21.07
2019-05-03T11:14:25.398Z,17.32
2019-05-03T11:16:55.226Z,18.17
2019-05-03T11:19:25.455Z,19.77
2019-05-03T11:21:54.821Z,20.25
2019-05-03T11:24:27.218Z,21.05
2019-05-03T11:26:55.995Z,21.30
2019-05-03T11:29:24.840Z,20.70
2019-05-03T11:32:01.139Z,20.75
2019-05-03T11:34:37.473Z,21.15
2019-05-03T11:37:07.766Z,18.90
2019-05-03T11:39:36.303Z,24.47
2019-05-03T11:42:05.184Z,18.17
2019-05-03T11:44:39.200Z,17.82
2019-05-03T11:47:09.572Z,19.37
2019-05-03T11:49:38.151Z,18.80
2019-05-03T11:52:07.485Z,18.57
2019-05-03T11:54:36.209Z,18.62
2019-05-03T11:57:06.485Z,17.42
2019-05-03T11:59:35.137Z,20.23
2019-05-03T12:02:20.685Z,18.55
2019-05-03T12:04:49.331Z,17.70
2019-05-03T12:07:39.570Z,21.35
2019-05-03T12:10:17.609Z,21.50
2019-05-03T12:12:40.139Z,20.55
2019-05-03T12:15:09.072Z,21.80
2019-05-03T12:17:51.860Z,21.07
2019-05-03T12:20:17.266Z,21.27
2019-05-03T12:22:46.589Z,19.55
2019-05-03T12:25:16.719Z,19.17
2019-05-03T12:27:46.592Z,21.80
2019-05-03T12:30:15.516Z,21.42
2019-05-03T12:32:44.183Z,20.00
2019-05-03T12:35:15.174Z,21.02
2019-05-03T12:37:43.188Z,22.05
2019-05-03T12:40:14.852Z,21.35
2019-05-03T12:42:45.293Z,21.17
2019-05-03T12:45:15.259Z,21.95
2019-05-03T12:47:45.358Z,24.70
2019-05-03T12:50:15.629Z,21.23
2019-05-03T12:52:50.381Z,21.65
2019-05-03T12:55:15.349Z,24.05
2019-05-03T12:57:45.749Z,23.92
2019-05-03T13:00:27.620Z,22.07
2019-05-03T13:02:57.833Z,21.23
2019-05-03T13:05:26.551Z,23.75
2019-05-03T13:08:15.149Z,23.95
2019-05-03T13:10:45.207Z,23.75
2019-05-03T13:13:14.621Z,25.23
2019-05-03T13:15:43.373Z,29.07
2019-05-03T13:18:15.658Z,24.80
2019-05-03T13:20:45.320Z,26.17
2019-05-03T13:23:14.209Z,31.75
2019-05-03T13:25:44.626Z,25.50
2019-05-03T13:28:15.177Z,27.37
2019-05-03T13:30:45.127Z,54.48
2019-05-03T13:33:15.141Z,84.72
2019-05-03T13:35:44.618Z,39.08
2019-05-03T13:38:13.659Z,31.77
2019-05-03T13:40:42.270Z,23.75
2019-05-03T13:43:10.907Z,32.05
2019-05-03T13:45:39.384Z,51.75
2019-05-03T13:48:08.014Z,41.02
2019-05-03T13:50:36.545Z,25.20
2019-05-03T13:53:05.513Z,27.35
2019-05-03T13:55:35.300Z,26.20
2019-05-03T13:58:05.202Z,29.95
2019-05-03T14:00:35.254Z,28.07
2019-05-03T14:03:04.562Z,29.30
2019-05-03T14:05:35.211Z,29.10
2019-05-03T14:08:05.082Z,28.65
2019-05-03T14:10:35.971Z,28.92
2019-05-03T14:13:05.591Z,35.48
2019-05-03T14:15:34.933Z,29.42
2019-05-03T14:18:05.982Z,29.15
2019-05-03T14:20:50.889Z,21.48
2019-05-03T14:23:19.629Z,24.00
2019-05-03T14:25:49.839Z,27.25
2019-05-03T14:28:18.747Z,24.82
2019-05-03T14:30:47.372Z,20.72
2019-05-03T14:33:16.260Z,17.50
2019-05-03T14:35:45.286Z,24.32
2019-05-03T14:38:15.124Z,20.68
2019-05-03T14:40:44.861Z,19.23
2019-05-03T14:43:15.433Z,23.77
2019-05-03T14:45:44.297Z,23.52
2019-05-03T14:48:15.076Z,21.77
2019-05-03T14:50:45.413Z,19.00
2019-05-03T14:53:14.771Z,20.52
2019-05-03T14:55:45.394Z,20.08
2019-05-03T14:58:21.611Z,21.37
2019-05-03T15:00:51.875Z,23.12
2019-05-03T15:03:22.074Z,26.42
2019-05-03T15:05:50.685Z,24.43
2019-05-03T15:08:19.301Z,21.68
2019-05-03T15:10:50.956Z,19.75
2019-05-03T15:13:19.497Z,21.87
2019-05-03T15:15:48.047Z,21.82
2019-05-03T15:18:16.644Z,21.90
2019-05-03T15:20:45.456Z,22.82
2019-05-03T15:23:14.765Z,19.77
2019-05-03T15:25:45.243Z,20.02
2019-05-03T15:28:13.809Z,19.87
2019-05-03T15:30:44.394Z,20.88
2019-05-03T15:33:12.624Z,16.45
2019-05-03T15:35:44.553Z,19.95
2019-05-03T15:38:11.672Z,14.85
2019-05-03T15:40:40.770Z,12.90
2019-05-03T15:43:14.909Z,13.45
2019-05-03T15:45:58.250Z,10.90
2019-05-03T15:48:28.343Z,9.85
2019-05-03T15:50:56.941Z,11.88
2019-05-03T15:53:25.472Z,11.50
2019-05-03T15:55:55.102Z,12.53
2019-05-03T15:58:24.887Z,11.93
2019-05-03T16:00:55.471Z,11.88
2019-05-03T16:03:25.295Z,13.22
2019-05-03T16:05:55.682Z,13.45
2019-05-03T16:08:25.387Z,16.05
2019-05-03T16:10:54.903Z,16.27
2019-05-03T16:13:25.248Z,17.40
2019-05-03T16:15:55.287Z,14.68
2019-05-03T16:18:24.674Z,16.48
2019-05-03T16:20:54.605Z,19.20
2019-05-03T16:23:25.072Z,18.82
2019-05-03T16:25:54.446Z,17.90
2019-05-03T16:28:24.931Z,21.27
2019-05-03T16:30:55.651Z,19.25
2019-05-03T16:33:27.835Z,21.35
2019-05-03T16:35:54.950Z,24.25
2019-05-03T16:38:24.854Z,25.77
2019-05-03T16:40:54.513Z,28.87
2019-05-03T16:43:25.506Z,25.70
2019-05-03T16:45:55.178Z,28.73
2019-05-03T16:48:24.678Z,24.87
2019-05-03T16:50:53.708Z,24.87
2019-05-03T16:53:22.391Z,24.43
2019-05-03T16:55:50.922Z,23.12
2019-05-03T16:58:19.404Z,23.95
2019-05-03T17:00:48.089Z,21.97
2019-05-03T17:03:18.197Z,21.35
2019-05-03T17:06:05.075Z,18.23
2019-05-03T17:08:35.263Z,22.37
2019-05-03T17:11:05.860Z,17.27
2019-05-03T17:13:34.720Z,21.02
2019-05-03T17:16:04.787Z,21.97
2019-05-03T17:18:35.306Z,19.45
2019-05-03T17:21:05.335Z,20.02
2019-05-03T17:23:35.296Z,23.67
2019-05-03T17:26:04.473Z,20.52
2019-05-03T17:28:35.355Z,21.30
2019-05-03T17:31:04.587Z,19.07
2019-05-03T17:33:34.800Z,24.95
2019-05-03T17:36:05.126Z,22.80
2019-05-03T17:38:35.168Z,21.42
2019-05-03T17:41:08.550Z,21.15
2019-05-03T17:43:38.802Z,23.38
2019-05-03T17:46:09.143Z,25.12
2019-05-03T17:48:37.751Z,22.98
2019-05-03T17:51:06.362Z,24.02
2019-05-03T17:53:39.281Z,23.00
2019-05-03T17:56:27.757Z,23.10
2019-05-03T17:58:57.925Z,26.45
2019-05-03T18:01:31.154Z,27.27
2019-05-03T18:04:10.466Z,23.95
2019-05-03T18:06:58.300Z,26.60
2019-05-03T18:09:28.571Z,28.25
2019-05-03T18:11:58.815Z,27.13
2019-05-03T18:14:27.366Z,26.85
2019-05-03T18:16:55.938Z,25.30
2019-05-03T18:19:24.508Z,27.27
2019-05-03T18:21:55.320Z,24.70
2019-05-03T18:24:24.758Z,21.40
2019-05-03T18:26:53.720Z,21.45
2019-05-03T18:29:22.326Z,26.75
2019-05-03T18:31:50.943Z,15.53
2019-05-03T18:34:22.398Z,17.98
2019-05-03T18:36:49.876Z,19.42
2019-05-03T18:39:18.484Z,21.50
2019-05-03T18:41:47.163Z,16.00
2019-05-03T18:44:26.318Z,16.23
2019-05-03T18:46:56.492Z,17.48
2019-05-03T18:49:25.103Z,16.37
2019-05-03T18:51:55.377Z,18.92
2019-05-03T18:54:24.648Z,14.20
2019-05-03T18:56:55.558Z,14.00
2019-05-03T18:59:23.824Z,13.20
2019-05-03T19:01:52.561Z,13.55
2019-05-03T19:04:37.389Z,13.03
2019-05-03T19:07:08.494Z,12.07
2019-05-03T19:09:44.457Z,12.68
2019-05-03T19:12:17.419Z,16.02
2019-05-03T19:14:46.570Z,15.10
2019-05-03T19:17:24.753Z,14.30
2019-05-03T19:19:57.759Z,13.95
2019-05-03T19:22:26.441Z,15.80
2019-05-03T19:24:55.050Z,13.65
2019-05-03T19:27:25.142Z,13.58
2019-05-03T19:29:55.536Z,17.85
2019-05-03T19:32:28.330Z,14.38
2019-05-03T19:34:56.057Z,12.55
2019-05-03T19:37:25.210Z,12.15
2019-05-03T19:39:55.218Z,12.95
2019-05-03T19:42:24.841Z,12.73
2019-05-03T19:44:56.018Z,17.82
2019-05-03T19:47:25.149Z,19.25
2019-05-03T19:49:54.820Z,17.87
2019-05-03T19:52:25.524Z,15.70
2019-05-03T19:54:55.418Z,14.47
2019-05-03T19:57:26.025Z,12.60
2019-05-03T19:59:56.791Z,14.75
2019-05-03T20:02:45.413Z,13.08
2019-05-03T20:05:16.035Z,17.57
2019-05-03T20:08:05.029Z,18.87
2019-05-03T20:10:35.155Z,17.48
2019-05-03T20:13:04.681Z,21.35
2019-05-03T20:15:33.584Z,19.25
2019-05-03T20:18:02.191Z,17.30
2019-05-03T20:20:30.761Z,18.57
2019-05-03T20:22:59.238Z,17.98
2019-05-03T20:25:27.841Z,15.15
2019-05-03T20:27:58.098Z,19.45
2019-05-03T20:30:26.629Z,17.35
2019-05-03T20:32:55.620Z,18.02
2019-05-03T20:35:25.195Z,15.85
2019-05-03T20:37:55.324Z,17.75
2019-05-03T20:40:25.546Z,14.83
2019-05-03T20:43:01.761Z,18.20
2019-05-03T20:45:44.561Z,16.77
2019-05-03T20:48:15.176Z,17.75
2019-05-03T20:50:44.744Z,18.27
2019-05-03T20:53:13.855Z,19.65
2019-05-03T20:55:42.485Z,53.73
2019-05-03T20:58:11.464Z,22.62
2019-05-03T21:00:40.538Z,23.20
2019-05-03T21:03:09.004Z,19.27
2019-05-03T21:05:37.675Z,23.55
2019-05-03T21:08:08.064Z,26.23
2019-05-03T21:10:37.410Z,30.12
2019-05-03T21:13:08.760Z,30.80
2019-05-03T21:15:47.353Z,27.85
2019-05-03T21:18:20.216Z,27.62
2019-05-03T21:20:55.502Z,23.40
2019-05-03T21:23:25.246Z,23.05
2019-05-03T21:26:13.413Z,23.20
2019-05-03T21:28:40.913Z,22.93
2019-05-03T21:31:09.520Z,44.33
2019-05-03T21:33:38.168Z,37.53
2019-05-03T21:36:06.784Z,55.55
2019-05-03T21:38:35.711Z,48.00
2019-05-03T21:41:05.382Z,49.67
2019-05-03T21:43:34.765Z,41.83
2019-05-03T21:46:11.384Z,32.85
2019-05-03T21:48:41.539Z,28.70
2019-05-03T21:51:10.180Z,26.52
2019-05-03T21:53:38.714Z,44.15
2019-05-03T21:56:07.356Z,65.55
2019-05-03T21:58:35.992Z,61.33
2019-05-03T22:01:06.251Z,35.95
2019-05-03T22:03:35.580Z,36.17
2019-05-03T22:06:04.288Z,23.80
2019-05-03T22:08:34.939Z,47.50
2019-05-03T22:11:05.247Z,70.25
2019-05-03T22:13:34.943Z,40.12
2019-05-03T22:16:05.380Z,48.50
2019-05-03T22:18:35.477Z,52.10
2019-05-03T22:21:11.530Z,51.35
2019-05-03T22:23:57.821Z,41.83
2019-05-03T22:26:45.263Z,34.98
2019-05-03T22:29:17.236Z,27.98
2019-05-03T22:31:45.332Z,40.10
2019-05-03T22:34:15.120Z,37.53
2019-05-03T22:36:44.432Z,27.50
2019-05-03T22:39:15.778Z,20.70
2019-05-03T22:41:43.654Z,19.70
2019-05-03T22:44:12.189Z,19.15
2019-05-03T22:46:40.997Z,18.37
2019-05-03T22:49:09.608Z,17.07
2019-05-03T22:51:38.144Z,18.27
2019-05-03T22:54:06.709Z,18.17
2019-05-03T22:56:35.673Z,16.97
2019-05-03T22:59:05.475Z,15.40
2019-05-03T23:01:35.181Z,20.77
2019-05-03T23:04:05.611Z,12.45
2019-05-03T23:06:34.345Z,14.60
2019-05-03T23:09:05.128Z,15.63
2019-05-03T23:11:35.311Z,16.17
2019-05-03T23:14:04.971Z,13.85
2019-05-03T23:16:35.655Z,19.87
2019-05-03T23:19:05.546Z,17.35
2019-05-03T23:21:38.790Z,16.95
2019-05-03T23:24:07.401Z,19.82
2019-05-03T23:26:36.038Z,19.42
2019-05-03T23:29:04.711Z,22.27
2019-05-03T23:31:34.375Z,20.50
2019-05-03T23:34:04.976Z,19.77
2019-05-03T23:36:36.283Z,24.10
2019-05-03T23:39:05.362Z,20.77
2019-05-03T23:41:35.345Z,29.20
2019-05-03T23:44:04.747Z,21.35
2019-05-03T23:46:35.200Z,21.33
2019-05-03T23:49:03.973Z,22.98
2019-05-03T23:51:44.412Z,29.20
2019-05-03T23:54:14.847Z,22.32
2019-05-03T23:56:45.634Z,26.40
2019-05-03T23:59:14.863Z,22.27
